Aérodrome :
LOGIN :

S'inscrire | Disclaimer

   EN    FR    IT 

 










Légende :    VFR   VFR Marginal   IFR   IFR Intensif   IFR Très Intensif
Visi : 
Plafond : 
>= 8 km
>= 3000ft
5 à 8 km
1000 à 3000 ft
1500m à 5 km
500 à 1000 ft
800 à 1500m
200 à 500 ft
< 800m
< 200 ft
Symboles :   Orages  Brouillard  Fortes neiges  Fortes précipitations  Vent > 20 kt
SIGMETs :   Divers  Orages  Givrage  Turbulence  Onde Orograph.  Cendres Volcan.






- Altitude de l'aérodrome : -15 ft
- Code IATA : RTM


EHRD - Rotterdam Zestienhoven

DERNIER METAR :
  • 050055Z AUTO 30001KT 3600 BR NCD 13/13 Q1011 TEMPO 1400 BCFG

METARs EXPIRÉS :
  • 050025Z AUTO 00000KT 6000 NCD 14/13 Q1011 TEMPO 1400 BCFG
  • 042355Z AUTO 34003KT 6000 NCD 14/13 Q1012 NOSIG
  • 042325Z AUTO 32002KT 9000 NSC 14/14 Q1012 NOSIG
  • 042255Z AUTO VRB01KT 9999 NSC 16/14 Q1012 NOSIG
  • 042225Z AUTO 08001KT 9999 NSC 16/15 Q1012 NOSIG

TAF TAF EHRD
Valide du 05 à 00h jusqu'au 06 à 06h UTC


042316Z 0500/0606 07005KT 8000 FEW030
BECMG 0500/0502 4000 MIFG BR
PROB40
TEMPO 0501/0506 1400 BCFG
BECMG 0505/0507 9999 NSW
PROB40
TEMPO 0511/0515 20015KT 5000 SHRA SCT025CB
TEMPO 0523/0606 6000 SHRA RA FEW018CB BKN020
PROB30
TEMPO 0601/0606 4000 RA SCT007 BKN012
BECMG 0603/0606 18010KT



MET'MAP, la Météo Aéronautique d'un coup d'oeil ! - Copyright ORBIFLY Décembre 2007 - Disclaimer

ORBIFLY MET'MAP TEAM :

Programmation & Développement : Alexandra Zaïnal
Sur une idée originale de : Baudouin d'Aumeries
Assistance à la programmation : Marc-Olivier Méhu
Soutien technique & logistique : Manuel Goepfert

Contact : metmap@orbifly.com




SOURCES & CREDITS :

   NOAA